createdAt,value
2022-08-29T00:00:32.428Z,1.60
2022-08-29T00:03:01.276Z,1.60
2022-08-29T00:05:33.639Z,1.70
2022-08-29T00:08:02.242Z,1.43
2022-08-29T00:10:31.816Z,1.80
2022-08-29T00:12:58.527Z,1.33
2022-08-29T00:15:26.032Z,1.53
2022-08-29T00:17:52.979Z,1.50
2022-08-29T00:20:22.932Z,1.40
2022-08-29T00:23:00.863Z,2.33
2022-08-29T00:25:27.980Z,1.43
2022-08-29T00:27:54.703Z,1.47
2022-08-29T00:30:23.683Z,1.53
2022-08-29T00:32:51.653Z,1.50
2022-08-29T00:35:23.187Z,1.70
2022-08-29T00:37:52.041Z,1.67
2022-08-29T00:40:23.381Z,1.70
2022-08-29T00:42:50.084Z,1.80
2022-08-29T00:45:17.958Z,1.90
2022-08-29T00:48:06.261Z,1.80
2022-08-29T00:50:38.645Z,2.10
2022-08-29T00:53:07.526Z,1.63
2022-08-29T00:55:35.952Z,1.30
2022-08-29T00:58:08.428Z,1.70
2022-08-29T01:00:36.004Z,1.80
2022-08-29T01:03:05.195Z,1.63
2022-08-29T01:05:32.746Z,1.70
2022-08-29T01:07:59.737Z,1.57
2022-08-29T01:10:45.097Z,1.60
2022-08-29T01:13:12.332Z,1.50
2022-08-29T01:15:41.954Z,1.50
2022-08-29T01:18:10.202Z,1.90
2022-08-29T01:21:01.382Z,2.00
2022-08-29T01:23:33.921Z,1.53
2022-08-29T01:26:02.476Z,1.73
2022-08-29T01:28:33.048Z,1.57
2022-08-29T01:31:05.042Z,1.90
2022-08-29T01:33:41.821Z,1.50
2022-08-29T01:36:10.569Z,1.90
2022-08-29T01:38:38.400Z,1.80
2022-08-29T01:41:05.687Z,1.90
2022-08-29T01:43:41.124Z,1.63
2022-08-29T01:46:08.941Z,2.00
2022-08-29T01:48:38.613Z,1.70
2022-08-29T01:51:05.639Z,1.70
2022-08-29T01:53:32.424Z,1.57
2022-08-29T01:55:59.076Z,2.20
2022-08-29T01:58:25.677Z,1.60
2022-08-29T02:00:52.528Z,1.50
2022-08-29T02:03:19.184Z,1.90
2022-08-29T02:05:47.785Z,1.80
2022-08-29T02:08:14.709Z,2.00
2022-08-29T02:10:41.525Z,1.80
2022-08-29T02:13:08.236Z,1.70
2022-08-29T02:15:35.658Z,1.77
2022-08-29T02:18:02.344Z,1.77
2022-08-29T02:20:29.200Z,1.60
2022-08-29T02:22:55.826Z,1.63
2022-08-29T02:25:40.970Z,1.90
2022-08-29T02:28:11.876Z,1.90
2022-08-29T02:30:40.578Z,1.70
2022-08-29T02:33:08.182Z,1.63
2022-08-29T02:35:37.965Z,1.73
2022-08-29T02:38:10.677Z,1.70
2022-08-29T02:40:37.938Z,1.77
2022-08-29T02:43:05.513Z,1.80
2022-08-29T02:45:32.664Z,1.50
2022-08-29T02:47:59.712Z,1.90
2022-08-29T02:50:26.407Z,1.77
2022-08-29T02:52:53.108Z,1.70
2022-08-29T02:55:21.731Z,1.80
2022-08-29T02:57:48.661Z,1.60
2022-08-29T03:00:19.248Z,1.90
2022-08-29T03:02:47.315Z,1.60
2022-08-29T03:05:16.144Z,1.67
2022-08-29T03:07:44.468Z,1.57
2022-08-29T03:10:12.646Z,1.63
2022-08-29T03:12:39.961Z,1.90
2022-08-29T03:15:08.062Z,1.80
2022-08-29T03:17:35.314Z,1.80
2022-08-29T03:20:02.676Z,1.60
2022-08-29T03:22:29.393Z,1.40
2022-08-29T03:24:56.065Z,1.80
2022-08-29T03:27:22.937Z,1.70
2022-08-29T03:29:49.556Z,1.53
2022-08-29T03:32:16.179Z,1.50
2022-08-29T03:34:42.825Z,1.80
2022-08-29T03:37:09.446Z,2.10
2022-08-29T03:39:37.883Z,1.57
2022-08-29T03:42:06.422Z,1.60
2022-08-29T03:44:37.945Z,1.30
2022-08-29T03:47:05.729Z,1.90
2022-08-29T03:49:33.213Z,1.27
2022-08-29T03:52:00.437Z,1.77
2022-08-29T03:54:27.519Z,1.57
2022-08-29T03:56:55.529Z,1.77
2022-08-29T03:59:23.298Z,1.60
2022-08-29T04:01:50.683Z,1.50
2022-08-29T04:04:37.461Z,1.73
2022-08-29T04:07:06.409Z,1.63
2022-08-29T04:09:33.530Z,1.53
2022-08-29T04:12:00.728Z,1.37
2022-08-29T04:14:27.460Z,1.80
2022-08-29T04:16:54.160Z,2.10
2022-08-29T04:19:21.932Z,1.60
2022-08-29T04:21:48.924Z,2.00
2022-08-29T04:24:16.488Z,1.80
2022-08-29T04:26:43.068Z,1.70
2022-08-29T04:29:11.982Z,1.60
2022-08-29T04:31:40.070Z,1.80
2022-08-29T04:34:08.537Z,1.50
2022-08-29T04:36:36.431Z,1.70
2022-08-29T04:39:05.161Z,1.70
2022-08-29T04:41:33.287Z,2.00
2022-08-29T04:44:00.411Z,1.73
2022-08-29T04:46:27.209Z,1.77
2022-08-29T04:48:54.123Z,1.80
2022-08-29T04:51:21.483Z,2.00
2022-08-29T04:53:49.887Z,1.63
2022-08-29T04:56:16.591Z,1.90
2022-08-29T04:58:44.769Z,2.03
2022-08-29T05:01:17.390Z,1.90
2022-08-29T05:03:44.384Z,1.83
2022-08-29T05:06:13.720Z,1.80
2022-08-29T05:08:41.848Z,2.20
2022-08-29T05:11:22.786Z,2.00
2022-08-29T05:13:51.831Z,1.87
2022-08-29T05:16:18.740Z,1.93
2022-08-29T05:18:46.744Z,2.20
2022-08-29T05:21:27.003Z,1.83
2022-08-29T05:23:56.458Z,1.93
2022-08-29T05:26:23.561Z,2.10
2022-08-29T05:28:51.370Z,1.80
2022-08-29T05:31:18.590Z,1.87
2022-08-29T05:33:45.205Z,1.83
2022-08-29T05:36:12.397Z,1.93
2022-08-29T05:38:39.092Z,1.90
2022-08-29T05:41:07.412Z,2.23
2022-08-29T05:43:34.967Z,1.90
2022-08-29T05:46:11.314Z,1.90
2022-08-29T05:48:45.187Z,1.90
2022-08-29T05:51:16.924Z,2.10
2022-08-29T05:53:43.586Z,1.80
2022-08-29T05:56:10.456Z,2.00
2022-08-29T05:58:37.167Z,2.00
2022-08-29T06:01:04.041Z,1.83
2022-08-29T06:03:31.458Z,2.13
2022-08-29T06:05:58.216Z,1.87
2022-08-29T06:08:24.987Z,1.73
2022-08-29T06:10:51.624Z,2.00
2022-08-29T06:13:18.531Z,1.90
2022-08-29T06:15:45.765Z,2.00
2022-08-29T06:18:13.503Z,2.13
2022-08-29T06:20:40.698Z,2.00
2022-08-29T06:23:07.458Z,2.07
2022-08-29T06:25:39.287Z,2.27
2022-08-29T06:28:07.139Z,1.90
2022-08-29T06:30:33.970Z,1.90
2022-08-29T06:33:01.765Z,2.00
2022-08-29T06:35:28.679Z,2.30
2022-08-29T06:37:55.744Z,1.90
2022-08-29T06:40:22.710Z,1.87
2022-08-29T06:42:49.662Z,1.80
2022-08-29T06:45:16.438Z,1.77
2022-08-29T06:47:45.454Z,2.00
2022-08-29T06:50:12.107Z,1.90
2022-08-29T06:52:38.771Z,1.80
2022-08-29T06:55:08.438Z,2.07
2022-08-29T06:57:35.108Z,1.70
2022-08-29T07:00:01.982Z,1.90
2022-08-29T07:02:41.052Z,2.03
2022-08-29T07:05:08.220Z,1.60
2022-08-29T07:07:35.925Z,1.70
2022-08-29T07:10:02.850Z,1.60
2022-08-29T07:12:29.471Z,1.97
2022-08-29T07:14:57.944Z,1.70
2022-08-29T07:17:25.911Z,1.70
2022-08-29T07:19:53.576Z,1.65
2022-08-29T07:22:20.428Z,1.58
2022-08-29T07:24:47.057Z,1.70
2022-08-29T07:27:14.932Z,1.73
2022-08-29T07:29:41.822Z,1.70
2022-08-29T07:32:08.538Z,1.80
2022-08-29T07:34:36.522Z,1.80
2022-08-29T07:37:05.774Z,1.50
2022-08-29T07:39:32.918Z,1.40
2022-08-29T07:41:59.638Z,1.70
2022-08-29T07:44:26.799Z,1.50
2022-08-29T07:46:58.584Z,1.52
2022-08-29T07:49:40.274Z,1.90
2022-08-29T07:52:07.884Z,1.77
2022-08-29T07:54:34.570Z,1.75
2022-08-29T07:57:01.453Z,2.00
2022-08-29T07:59:28.194Z,2.03
2022-08-29T08:01:55.027Z,1.85
2022-08-29T08:04:21.724Z,1.70
2022-08-29T08:06:50.941Z,1.67
2022-08-29T08:09:17.733Z,1.60
2022-08-29T08:11:44.627Z,1.83
2022-08-29T08:14:12.128Z,1.63
2022-08-29T08:16:39.001Z,1.88
2022-08-29T08:19:11.795Z,1.70
2022-08-29T08:21:38.438Z,1.98
2022-08-29T08:24:19.346Z,2.20
2022-08-29T08:26:47.183Z,1.90
2022-08-29T08:29:13.772Z,1.80
2022-08-29T08:31:49.423Z,1.75
2022-08-29T08:34:17.816Z,2.00
2022-08-29T08:36:45.657Z,2.28
2022-08-29T08:39:14.061Z,2.20
2022-08-29T08:41:59.255Z,1.95
2022-08-29T08:44:49.461Z,2.10
2022-08-29T08:47:25.729Z,2.10
2022-08-29T08:50:01.185Z,2.10
2022-08-29T08:52:37.655Z,1.70
2022-08-29T08:55:14.922Z,2.13
2022-08-29T08:57:48.061Z,2.20
2022-08-29T09:00:14.719Z,2.22
2022-08-29T09:03:02.266Z,2.17
2022-08-29T09:05:40.335Z,1.92
2022-08-29T09:08:35.677Z,2.10
2022-08-29T09:11:41.324Z,2.30
2022-08-29T09:14:14.553Z,2.05
2022-08-29T09:16:49.310Z,1.60
2022-08-29T09:19:18.007Z,2.13
2022-08-29T09:21:55.163Z,1.77
2022-08-29T09:24:36.605Z,1.85
2022-08-29T09:27:03.415Z,1.80
2022-08-29T09:29:30.981Z,2.10
2022-08-29T09:32:07.297Z,1.77
2022-08-29T09:35:04.810Z,1.92
2022-08-29T09:37:33.906Z,1.98
2022-08-29T09:40:15.861Z,1.63
2022-08-29T09:42:59.078Z,1.90
2022-08-29T09:45:26.844Z,1.58
2022-08-29T09:48:14.346Z,1.80
2022-08-29T09:50:41.102Z,1.70
2022-08-29T09:53:14.325Z,2.03
2022-08-29T09:55:52.338Z,1.63
2022-08-29T09:58:21.757Z,2.17
2022-08-29T10:01:09.927Z,2.05
2022-08-29T10:03:43.430Z,1.80
2022-08-29T10:06:17.375Z,1.50
2022-08-29T10:09:01.412Z,1.80
2022-08-29T10:11:56.467Z,1.48
2022-08-29T10:14:46.741Z,1.90
2022-08-29T10:17:56.459Z,1.75
2022-08-29T10:20:38.208Z,1.95
2022-08-29T10:23:18.206Z,2.00
2022-08-29T10:25:45.074Z,1.65
2022-08-29T10:28:37.090Z,1.73
2022-08-29T10:31:10.383Z,2.20
2022-08-29T10:34:08.768Z,1.90
2022-08-29T10:36:43.307Z,1.88
2022-08-29T10:39:33.581Z,2.25
2022-08-29T10:42:09.739Z,1.90
2022-08-29T10:44:51.961Z,1.83
2022-08-29T10:47:34.206Z,1.80
2022-08-29T10:50:47.565Z,1.60
2022-08-29T10:53:17.096Z,1.88
2022-08-29T10:55:53.851Z,2.00
2022-08-29T10:58:26.280Z,2.00
2022-08-29T11:01:22.324Z,1.80
2022-08-29T11:03:58.655Z,1.90
2022-08-29T11:06:31.136Z,1.80
2022-08-29T11:09:15.941Z,2.13
2022-08-29T11:11:55.533Z,1.90
2022-08-29T11:14:28.050Z,2.15
2022-08-29T11:16:56.025Z,2.15
2022-08-29T11:19:30.663Z,1.95
2022-08-29T11:22:04.846Z,1.83
2022-08-29T11:24:36.022Z,2.00
2022-08-29T11:27:18.847Z,1.90
2022-08-29T11:29:51.379Z,1.70
2022-08-29T11:32:21.008Z,1.80
2022-08-29T11:34:52.656Z,1.88
2022-08-29T11:37:28.858Z,1.90
2022-08-29T11:40:47.199Z,2.00
2022-08-29T11:43:12.433Z,2.00
2022-08-29T11:45:42.813Z,1.63
2022-08-29T11:48:39.552Z,1.80
2022-08-29T11:51:37.323Z,2.28
2022-08-29T11:54:42.370Z,2.03
2022-08-29T11:57:08.985Z,2.00
2022-08-29T11:59:56.750Z,1.95
2022-08-29T12:02:30.161Z,1.83
2022-08-29T12:05:16.537Z,2.20
2022-08-29T12:08:14.521Z,1.90
2022-08-29T12:10:55.396Z,2.17
2022-08-29T12:13:43.706Z,1.90
2022-08-29T12:16:12.319Z,2.00
2022-08-29T12:18:45.319Z,2.45
2022-08-29T12:21:38.313Z,2.13
2022-08-29T12:24:29.220Z,1.60
2022-08-29T12:26:56.562Z,1.83
2022-08-29T12:29:33.244Z,2.17
2022-08-29T12:32:32.849Z,1.92
2022-08-29T12:35:17.800Z,1.90
2022-08-29T12:38:09.384Z,2.00
2022-08-29T12:41:18.285Z,1.90
2022-08-29T12:43:46.674Z,2.30
2022-08-29T12:46:28.112Z,2.05
2022-08-29T12:49:17.230Z,1.90
2022-08-29T12:51:47.808Z,1.80
2022-08-29T12:54:14.769Z,1.95
2022-08-29T12:56:48.524Z,2.05
2022-08-29T12:59:20.605Z,1.70
2022-08-29T13:01:50.110Z,2.20
2022-08-29T13:04:32.370Z,1.90
2022-08-29T13:07:08.711Z,2.00
2022-08-29T13:09:44.246Z,1.92
2022-08-29T13:12:10.820Z,2.28
2022-08-29T13:14:56.354Z,2.13
2022-08-29T13:17:45.134Z,2.30
2022-08-29T13:20:43.041Z,1.77
2022-08-29T13:23:12.613Z,1.95
2022-08-29T13:25:51.315Z,1.92
2022-08-29T13:28:40.779Z,2.00
2022-08-29T13:31:23.049Z,1.58
2022-08-29T13:33:49.731Z,1.67
2022-08-29T13:36:31.209Z,1.90
2022-08-29T13:39:25.323Z,1.88
2022-08-29T13:42:00.824Z,1.88
2022-08-29T13:44:46.050Z,1.65
2022-08-29T13:47:14.217Z,1.90
2022-08-29T13:49:41.159Z,1.60
2022-08-29T13:52:10.231Z,2.05
2022-08-29T13:54:40.444Z,1.90
2022-08-29T13:57:11.439Z,1.70
2022-08-29T13:59:38.150Z,1.88
2022-08-29T14:02:10.148Z,1.83
2022-08-29T14:04:39.782Z,2.05
2022-08-29T14:07:11.351Z,2.08
2022-08-29T14:09:40.797Z,1.95
2022-08-29T14:12:08.020Z,2.13
2022-08-29T14:14:34.683Z,1.55
2022-08-29T14:17:01.676Z,1.90
2022-08-29T14:19:29.490Z,1.95
2022-08-29T14:21:59.040Z,1.90
2022-08-29T14:24:29.169Z,2.03
2022-08-29T14:26:57.558Z,2.15
2022-08-29T14:29:31.022Z,1.52
2022-08-29T14:31:58.507Z,1.95
2022-08-29T14:34:25.557Z,1.85
2022-08-29T14:36:57.431Z,1.83
2022-08-29T14:39:26.543Z,1.90
2022-08-29T14:41:54.321Z,1.88
2022-08-29T14:44:21.882Z,1.90
2022-08-29T14:46:49.563Z,1.75
2022-08-29T14:49:16.323Z,1.83
2022-08-29T14:51:44.355Z,2.05
2022-08-29T14:54:11.901Z,1.98
2022-08-29T14:56:49.094Z,1.90
2022-08-29T14:59:16.631Z,2.22
2022-08-29T15:01:43.297Z,1.77
2022-08-29T15:04:11.080Z,2.00
2022-08-29T15:06:38.192Z,1.98
2022-08-29T15:09:05.543Z,1.80
2022-08-29T15:11:32.315Z,2.00
2022-08-29T15:14:04.426Z,1.90
2022-08-29T15:16:31.809Z,2.28
2022-08-29T15:19:44.767Z,2.08
2022-08-29T15:21:45.175Z,2.03
2022-08-29T15:24:11.917Z,1.85
2022-08-29T15:26:38.878Z,2.00
2022-08-29T15:29:05.654Z,1.92
2022-08-29T15:31:32.325Z,2.10
2022-08-29T15:33:58.929Z,1.80
2022-08-29T15:36:25.831Z,2.00
2022-08-29T15:38:52.513Z,1.98
2022-08-29T15:41:19.345Z,2.05
2022-08-29T15:43:46.045Z,2.00
2022-08-29T15:46:12.808Z,1.80
2022-08-29T15:48:39.621Z,2.00
2022-08-29T15:51:06.354Z,1.95
2022-08-29T15:53:33.045Z,2.10
2022-08-29T15:55:59.718Z,1.83
2022-08-29T15:58:26.776Z,2.08
2022-08-29T16:00:53.388Z,2.20
2022-08-29T16:03:20.056Z,2.50
2022-08-29T16:05:46.772Z,2.08
2022-08-29T16:08:17.547Z,2.10
2022-08-29T16:10:44.955Z,2.13
2022-08-29T16:13:11.707Z,1.80
2022-08-29T16:15:38.901Z,2.35
2022-08-29T16:18:06.665Z,1.77
2022-08-29T16:20:34.029Z,2.25
2022-08-29T16:23:01.895Z,1.90
2022-08-29T16:25:30.940Z,2.05
2022-08-29T16:27:59.253Z,2.20
2022-08-29T16:30:25.938Z,1.90
2022-08-29T16:32:55.147Z,1.88
2022-08-29T16:35:22.123Z,2.60
2022-08-29T16:38:02.548Z,1.88
2022-08-29T16:40:30.270Z,2.00
2022-08-29T16:42:56.961Z,2.00
2022-08-29T16:45:23.755Z,2.50
2022-08-29T16:47:54.128Z,2.00
2022-08-29T16:50:24.173Z,2.08
2022-08-29T16:52:50.771Z,2.15
2022-08-29T16:55:17.403Z,2.50
2022-08-29T16:58:04.003Z,2.10
2022-08-29T17:00:30.949Z,1.95
2022-08-29T17:02:57.598Z,2.17
2022-08-29T17:05:24.460Z,2.35
2022-08-29T17:07:51.158Z,2.30
2022-08-29T17:10:17.873Z,2.25
2022-08-29T17:12:44.555Z,1.80
2022-08-29T17:15:11.243Z,2.10
2022-08-29T17:17:37.940Z,1.90
2022-08-29T17:20:04.857Z,2.13
2022-08-29T17:22:31.495Z,2.00
2022-08-29T17:24:58.197Z,2.35
2022-08-29T17:27:29.867Z,2.20
2022-08-29T17:29:56.870Z,1.95
2022-08-29T17:32:23.552Z,2.17
2022-08-29T17:34:50.537Z,2.28
2022-08-29T17:37:17.243Z,2.20
2022-08-29T17:39:43.913Z,1.88
2022-08-29T17:42:10.710Z,2.70
2022-08-29T17:44:37.879Z,1.77
2022-08-29T17:47:04.695Z,1.98
2022-08-29T17:49:31.411Z,2.35
2022-08-29T17:51:58.352Z,2.22
2022-08-29T17:54:26.449Z,2.20
2022-08-29T17:56:58.948Z,1.90
2022-08-29T17:59:28.762Z,2.25
2022-08-29T18:01:56.627Z,2.10
2022-08-29T18:04:24.229Z,2.00
2022-08-29T18:06:51.878Z,2.10
2022-08-29T18:09:19.490Z,2.47
2022-08-29T18:11:49.541Z,2.22
2022-08-29T18:14:17.647Z,2.25
2022-08-29T18:16:44.410Z,2.25
2022-08-29T18:19:13.409Z,2.33
2022-08-29T18:21:41.349Z,2.20
2022-08-29T18:24:13.553Z,2.03
2022-08-29T18:26:41.610Z,2.45
2022-08-29T18:29:08.361Z,1.98
2022-08-29T18:31:35.132Z,2.00
2022-08-29T18:34:02.137Z,2.60
2022-08-29T18:36:30.894Z,2.70
2022-08-29T18:38:57.842Z,2.67
2022-08-29T18:41:24.625Z,2.70
2022-08-29T18:43:51.780Z,4.78
2022-08-29T18:46:19.058Z,5.80
2022-08-29T18:48:46.325Z,5.13
2022-08-29T18:51:14.522Z,4.03
2022-08-29T18:53:41.317Z,2.60
2022-08-29T18:56:07.970Z,2.22
2022-08-29T18:58:35.846Z,2.17
2022-08-29T19:01:11.124Z,2.08
2022-08-29T19:03:38.234Z,2.30
2022-08-29T19:06:05.120Z,2.38
2022-08-29T19:08:32.190Z,2.13
2022-08-29T19:11:00.180Z,2.35
2022-08-29T19:13:27.095Z,2.25
2022-08-29T19:15:58.990Z,2.30
2022-08-29T19:18:27.077Z,2.08
2022-08-29T19:21:02.815Z,2.00
2022-08-29T19:23:32.631Z,2.40
2022-08-29T19:26:00.457Z,2.10
2022-08-29T19:28:27.238Z,2.20
2022-08-29T19:30:54.027Z,2.08
2022-08-29T19:33:20.794Z,2.20
2022-08-29T19:35:49.485Z,2.17
2022-08-29T19:38:18.238Z,2.50
2022-08-29T19:40:48.516Z,2.47
2022-08-29T19:43:15.783Z,2.17
2022-08-29T19:45:44.222Z,2.20
2022-08-29T19:48:15.348Z,2.58
2022-08-29T19:50:43.428Z,2.88
2022-08-29T19:53:19.943Z,2.30
2022-08-29T19:55:53.670Z,2.45
2022-08-29T19:58:21.327Z,2.47
2022-08-29T20:00:48.023Z,2.10
2022-08-29T20:03:16.275Z,2.28
2022-08-29T20:05:43.145Z,1.88
2022-08-29T20:08:10.196Z,2.45
2022-08-29T20:10:36.843Z,2.60
2022-08-29T20:13:04.195Z,2.70
2022-08-29T20:15:31.009Z,2.75
2022-08-29T20:17:59.831Z,2.28
2022-08-29T20:20:31.596Z,2.10
2022-08-29T20:22:58.306Z,1.98
2022-08-29T20:25:25.031Z,2.45
2022-08-29T20:27:53.048Z,2.35
2022-08-29T20:30:23.799Z,2.30
2022-08-29T20:32:51.707Z,2.15
2022-08-29T20:35:39.531Z,2.00
2022-08-29T20:38:07.217Z,2.20
2022-08-29T20:40:37.392Z,2.00
2022-08-29T20:43:04.580Z,2.03
2022-08-29T20:45:31.186Z,2.00
2022-08-29T20:47:58.087Z,1.70
2022-08-29T20:50:25.515Z,1.77
2022-08-29T20:52:53.849Z,2.13
2022-08-29T20:55:20.896Z,1.73
2022-08-29T20:57:47.485Z,2.17
2022-08-29T21:00:14.576Z,2.58
2022-08-29T21:03:00.293Z,1.80
2022-08-29T21:05:45.678Z,1.83
2022-08-29T21:08:18.332Z,2.10
2022-08-29T21:10:46.395Z,2.00
2022-08-29T21:13:14.159Z,1.70
2022-08-29T21:15:41.719Z,2.17
2022-08-29T21:18:10.619Z,2.00
2022-08-29T21:20:53.718Z,2.10
2022-08-29T21:23:22.265Z,2.40
2022-08-29T21:25:53.690Z,2.00
2022-08-29T21:28:20.389Z,2.27
2022-08-29T21:30:47.023Z,2.23
2022-08-29T21:33:13.678Z,2.40
2022-08-29T21:35:41.961Z,2.20
2022-08-29T21:38:09.591Z,2.10
2022-08-29T21:40:44.057Z,2.00
2022-08-29T21:43:17.727Z,1.90
2022-08-29T21:45:44.520Z,2.17
2022-08-29T21:48:11.190Z,2.40
2022-08-29T21:50:38.458Z,2.33
2022-08-29T21:53:05.605Z,2.40
2022-08-29T21:55:32.933Z,2.20
2022-08-29T21:58:00.619Z,1.97
2022-08-29T22:00:34.258Z,2.30
2022-08-29T22:03:03.851Z,2.30
2022-08-29T22:05:31.504Z,2.33
2022-08-29T22:07:59.050Z,2.37
2022-08-29T22:10:30.240Z,2.17
2022-08-29T22:12:57.479Z,2.50
2022-08-29T22:15:43.626Z,2.50
2022-08-29T22:18:12.256Z,2.30
2022-08-29T22:20:38.947Z,2.30
2022-08-29T22:23:06.026Z,2.47
2022-08-29T22:25:32.849Z,2.43
2022-08-29T22:27:59.632Z,2.60
2022-08-29T22:30:32.074Z,2.70
2022-08-29T22:33:00.307Z,2.63
2022-08-29T22:35:28.351Z,2.73
2022-08-29T22:37:55.105Z,2.40
2022-08-29T22:40:21.917Z,2.63
2022-08-29T22:42:48.688Z,2.53
2022-08-29T22:45:16.833Z,2.50
2022-08-29T22:47:45.088Z,2.80
2022-08-29T22:50:17.812Z,2.70
2022-08-29T22:52:44.903Z,2.40
2022-08-29T22:55:15.599Z,2.67
2022-08-29T22:57:45.033Z,2.97
2022-08-29T23:00:15.861Z,2.83
2022-08-29T23:02:42.975Z,2.50
2022-08-29T23:05:10.368Z,2.63
2022-08-29T23:07:37.231Z,2.93
2022-08-29T23:10:05.805Z,3.10
2022-08-29T23:12:32.653Z,2.37
2022-08-29T23:14:59.303Z,2.50
2022-08-29T23:17:25.909Z,2.70
2022-08-29T23:19:52.631Z,2.80
2022-08-29T23:22:20.774Z,2.60
2022-08-29T23:24:51.605Z,2.87
2022-08-29T23:27:25.450Z,2.73
2022-08-29T23:29:52.451Z,2.67
2022-08-29T23:32:19.105Z,2.40
2022-08-29T23:34:45.752Z,2.73
2022-08-29T23:37:12.373Z,2.30
2022-08-29T23:39:39.003Z,2.57
2022-08-29T23:42:06.029Z,2.40
2022-08-29T23:44:32.641Z,2.40
2022-08-29T23:46:59.258Z,2.27
2022-08-29T23:49:25.869Z,2.10
2022-08-29T23:51:52.507Z,2.37
2022-08-29T23:54:19.319Z,3.03
2022-08-29T23:56:45.986Z,2.37
2022-08-29T23:59:32.582Z,2.90
